sensor_id;sensor_type;location;lat;lon;timestamp;P1;durP1;ratioP1;P2;durP2;ratioP2
10719;SDS011;5411;58.386;15.560;2023-07-16T00:01:09;3.70;;;2.73;;
10719;SDS011;5411;58.386;15.560;2023-07-16T00:03:38;4.37;;;2.90;;
10719;SDS011;5411;58.386;15.560;2023-07-16T00:06:06;3.57;;;2.93;;
10719;SDS011;5411;58.386;15.560;2023-07-16T00:08:36;4.80;;;3.40;;
10719;SDS011;5411;58.386;15.560;2023-07-16T00:11:07;5.23;;;2.90;;
10719;SDS011;5411;58.386;15.560;2023-07-16T00:13:36;3.90;;;3.00;;
10719;SDS011;5411;58.386;15.560;2023-07-16T00:16:08;3.20;;;2.90;;
10719;SDS011;5411;58.386;15.560;2023-07-16T00:18:37;5.47;;;3.40;;
10719;SDS011;5411;58.386;15.560;2023-07-16T00:21:05;5.13;;;3.00;;
10719;SDS011;5411;58.386;15.560;2023-07-16T00:23:33;4.93;;;3.20;;
10719;SDS011;5411;58.386;15.560;2023-07-16T00:26:02;4.53;;;3.17;;
10719;SDS011;5411;58.386;15.560;2023-07-16T00:28:31;6.13;;;3.03;;
10719;SDS011;5411;58.386;15.560;2023-07-16T00:31:03;3.37;;;2.97;;
10719;SDS011;5411;58.386;15.560;2023-07-16T00:33:32;5.40;;;3.27;;
10719;SDS011;5411;58.386;15.560;2023-07-16T00:36:00;6.27;;;3.20;;
10719;SDS011;5411;58.386;15.560;2023-07-16T00:38:29;6.83;;;3.07;;
10719;SDS011;5411;58.386;15.560;2023-07-16T00:40:58;4.47;;;3.00;;
10719;SDS011;5411;58.386;15.560;2023-07-16T00:43:27;3.80;;;3.20;;
10719;SDS011;5411;58.386;15.560;2023-07-16T00:45:58;5.20;;;3.73;;
10719;SDS011;5411;58.386;15.560;2023-07-16T00:48:26;5.23;;;3.50;;
10719;SDS011;5411;58.386;15.560;2023-07-16T00:50:56;7.40;;;4.07;;
10719;SDS011;5411;58.386;15.560;2023-07-16T00:53:25;4.93;;;3.70;;
10719;SDS011;5411;58.386;15.560;2023-07-16T00:55:54;5.23;;;3.37;;
10719;SDS011;5411;58.386;15.560;2023-07-16T00:58:23;6.70;;;4.20;;
10719;SDS011;5411;58.386;15.560;2023-07-16T01:00:52;6.00;;;4.03;;
10719;SDS011;5411;58.386;15.560;2023-07-16T01:03:20;8.23;;;3.70;;
10719;SDS011;5411;58.386;15.560;2023-07-16T01:05:57;7.13;;;4.07;;
10719;SDS011;5411;58.386;15.560;2023-07-16T01:08:32;4.33;;;3.80;;
10719;SDS011;5411;58.386;15.560;2023-07-16T01:11:07;4.47;;;3.80;;
10719;SDS011;5411;58.386;15.560;2023-07-16T01:13:37;6.20;;;4.40;;
10719;SDS011;5411;58.386;15.560;2023-07-16T01:16:19;4.57;;;4.17;;
10719;SDS011;5411;58.386;15.560;2023-07-16T01:18:49;7.77;;;4.00;;
10719;SDS011;5411;58.386;15.560;2023-07-16T01:21:18;5.13;;;4.00;;
10719;SDS011;5411;58.386;15.560;2023-07-16T01:23:56;4.77;;;3.90;;
10719;SDS011;5411;58.386;15.560;2023-07-16T01:26:36;6.63;;;3.90;;
10719;SDS011;5411;58.386;15.560;2023-07-16T01:29:25;4.97;;;4.23;;
10719;SDS011;5411;58.386;15.560;2023-07-16T01:31:56;4.60;;;4.20;;
10719;SDS011;5411;58.386;15.560;2023-07-16T01:34:28;5.93;;;4.37;;
10719;SDS011;5411;58.386;15.560;2023-07-16T01:37:00;5.17;;;4.30;;
10719;SDS011;5411;58.386;15.560;2023-07-16T01:39:28;6.97;;;4.30;;
10719;SDS011;5411;58.386;15.560;2023-07-16T01:41:59;4.17;;;3.77;;
10719;SDS011;5411;58.386;15.560;2023-07-16T01:44:29;5.03;;;4.23;;
10719;SDS011;5411;58.386;15.560;2023-07-16T01:47:05;7.93;;;4.87;;
10719;SDS011;5411;58.386;15.560;2023-07-16T01:49:36;6.37;;;4.67;;
10719;SDS011;5411;58.386;15.560;2023-07-16T01:52:07;5.90;;;4.13;;
10719;SDS011;5411;58.386;15.560;2023-07-16T01:54:36;5.70;;;4.20;;
10719;SDS011;5411;58.386;15.560;2023-07-16T01:57:05;4.93;;;4.30;;
10719;SDS011;5411;58.386;15.560;2023-07-16T01:59:35;6.00;;;4.57;;
10719;SDS011;5411;58.386;15.560;2023-07-16T02:02:05;4.80;;;4.40;;
10719;SDS011;5411;58.386;15.560;2023-07-16T02:04:34;4.80;;;3.83;;
10719;SDS011;5411;58.386;15.560;2023-07-16T02:07:03;5.53;;;4.17;;
10719;SDS011;5411;58.386;15.560;2023-07-16T02:09:33;5.47;;;4.70;;
10719;SDS011;5411;58.386;15.560;2023-07-16T02:12:02;6.67;;;4.20;;
10719;SDS011;5411;58.386;15.560;2023-07-16T02:14:30;5.50;;;4.57;;
10719;SDS011;5411;58.386;15.560;2023-07-16T02:17:02;6.00;;;4.17;;
10719;SDS011;5411;58.386;15.560;2023-07-16T02:19:31;5.30;;;4.27;;
10719;SDS011;5411;58.386;15.560;2023-07-16T02:22:02;8.07;;;4.83;;
10719;SDS011;5411;58.386;15.560;2023-07-16T02:24:32;6.20;;;4.30;;
10719;SDS011;5411;58.386;15.560;2023-07-16T02:27:02;5.87;;;4.50;;
10719;SDS011;5411;58.386;15.560;2023-07-16T02:29:31;6.73;;;4.40;;
10719;SDS011;5411;58.386;15.560;2023-07-16T02:32:01;5.87;;;5.17;;
10719;SDS011;5411;58.386;15.560;2023-07-16T02:34:30;6.00;;;4.67;;
10719;SDS011;5411;58.386;15.560;2023-07-16T02:36:58;6.27;;;4.60;;
10719;SDS011;5411;58.386;15.560;2023-07-16T02:39:28;7.23;;;4.60;;
10719;SDS011;5411;58.386;15.560;2023-07-16T02:41:56;6.27;;;4.47;;
10719;SDS011;5411;58.386;15.560;2023-07-16T02:44:24;7.37;;;4.50;;
10719;SDS011;5411;58.386;15.560;2023-07-16T02:46:53;5.83;;;4.33;;
10719;SDS011;5411;58.386;15.560;2023-07-16T02:49:23;6.13;;;4.60;;
10719;SDS011;5411;58.386;15.560;2023-07-16T02:51:52;7.33;;;4.73;;
10719;SDS011;5411;58.386;15.560;2023-07-16T02:54:20;6.30;;;4.47;;
10719;SDS011;5411;58.386;15.560;2023-07-16T02:56:49;5.93;;;4.13;;
10719;SDS011;5411;58.386;15.560;2023-07-16T02:59:18;6.37;;;4.43;;
10719;SDS011;5411;58.386;15.560;2023-07-16T03:01:46;8.03;;;4.97;;
10719;SDS011;5411;58.386;15.560;2023-07-16T03:04:15;6.57;;;4.90;;
10719;SDS011;5411;58.386;15.560;2023-07-16T03:06:51;6.30;;;4.67;;
10719;SDS011;5411;58.386;15.560;2023-07-16T03:09:20;5.60;;;4.87;;
10719;SDS011;5411;58.386;15.560;2023-07-16T03:11:48;6.20;;;4.47;;
10719;SDS011;5411;58.386;15.560;2023-07-16T03:14:20;8.43;;;4.67;;
10719;SDS011;5411;58.386;15.560;2023-07-16T03:16:49;5.80;;;4.43;;
10719;SDS011;5411;58.386;15.560;2023-07-16T03:19:18;6.40;;;4.23;;
10719;SDS011;5411;58.386;15.560;2023-07-16T03:21:47;6.37;;;4.90;;
10719;SDS011;5411;58.386;15.560;2023-07-16T03:24:17;5.47;;;4.13;;
10719;SDS011;5411;58.386;15.560;2023-07-16T03:26:46;5.77;;;4.73;;
10719;SDS011;5411;58.386;15.560;2023-07-16T03:29:17;6.07;;;4.27;;
10719;SDS011;5411;58.386;15.560;2023-07-16T03:31:47;8.00;;;4.63;;
10719;SDS011;5411;58.386;15.560;2023-07-16T03:34:16;6.97;;;4.10;;
10719;SDS011;5411;58.386;15.560;2023-07-16T03:36:44;8.00;;;4.70;;
10719;SDS011;5411;58.386;15.560;2023-07-16T03:39:13;6.90;;;4.87;;
10719;SDS011;5411;58.386;15.560;2023-07-16T03:41:43;6.17;;;4.53;;
10719;SDS011;5411;58.386;15.560;2023-07-16T03:44:11;5.37;;;4.60;;
10719;SDS011;5411;58.386;15.560;2023-07-16T03:46:42;6.70;;;5.37;;
10719;SDS011;5411;58.386;15.560;2023-07-16T03:49:10;7.40;;;4.70;;
10719;SDS011;5411;58.386;15.560;2023-07-16T03:51:38;7.30;;;4.70;;
10719;SDS011;5411;58.386;15.560;2023-07-16T03:54:07;7.57;;;4.67;;
10719;SDS011;5411;58.386;15.560;2023-07-16T03:56:36;6.33;;;4.83;;
10719;SDS011;5411;58.386;15.560;2023-07-16T03:59:08;8.27;;;4.77;;
10719;SDS011;5411;58.386;15.560;2023-07-16T04:01:37;5.40;;;4.67;;
10719;SDS011;5411;58.386;15.560;2023-07-16T04:04:05;6.90;;;4.47;;
10719;SDS011;5411;58.386;15.560;2023-07-16T04:06:34;6.20;;;4.60;;
10719;SDS011;5411;58.386;15.560;2023-07-16T04:09:02;4.90;;;4.50;;
10719;SDS011;5411;58.386;15.560;2023-07-16T04:11:31;7.30;;;4.90;;
10719;SDS011;5411;58.386;15.560;2023-07-16T04:13:59;6.57;;;4.90;;
10719;SDS011;5411;58.386;15.560;2023-07-16T04:16:29;7.27;;;4.80;;
10719;SDS011;5411;58.386;15.560;2023-07-16T04:19:02;6.63;;;4.80;;
10719;SDS011;5411;58.386;15.560;2023-07-16T04:21:31;7.00;;;4.90;;
10719;SDS011;5411;58.386;15.560;2023-07-16T04:23:59;6.57;;;4.50;;
10719;SDS011;5411;58.386;15.560;2023-07-16T04:26:28;7.20;;;4.77;;
10719;SDS011;5411;58.386;15.560;2023-07-16T04:28:56;7.40;;;4.57;;
10719;SDS011;5411;58.386;15.560;2023-07-16T04:31:25;5.97;;;4.53;;
10719;SDS011;5411;58.386;15.560;2023-07-16T04:33:55;5.13;;;4.63;;
10719;SDS011;5411;58.386;15.560;2023-07-16T04:36:23;8.27;;;5.23;;
10719;SDS011;5411;58.386;15.560;2023-07-16T04:38:52;7.83;;;4.97;;
10719;SDS011;5411;58.386;15.560;2023-07-16T04:41:21;5.37;;;4.30;;
10719;SDS011;5411;58.386;15.560;2023-07-16T04:43:50;6.13;;;5.00;;
10719;SDS011;5411;58.386;15.560;2023-07-16T04:46:19;6.57;;;4.87;;
10719;SDS011;5411;58.386;15.560;2023-07-16T04:48:49;6.77;;;4.70;;
10719;SDS011;5411;58.386;15.560;2023-07-16T04:51:19;7.17;;;4.97;;
10719;SDS011;5411;58.386;15.560;2023-07-16T04:53:47;6.80;;;5.23;;
10719;SDS011;5411;58.386;15.560;2023-07-16T04:56:16;7.10;;;4.90;;
10719;SDS011;5411;58.386;15.560;2023-07-16T04:58:45;6.93;;;5.00;;
10719;SDS011;5411;58.386;15.560;2023-07-16T05:01:13;5.70;;;4.77;;
10719;SDS011;5411;58.386;15.560;2023-07-16T05:03:42;7.00;;;5.13;;
10719;SDS011;5411;58.386;15.560;2023-07-16T05:06:10;7.30;;;4.90;;
10719;SDS011;5411;58.386;15.560;2023-07-16T05:08:41;5.93;;;4.67;;
10719;SDS011;5411;58.386;15.560;2023-07-16T05:11:12;7.40;;;4.87;;
10719;SDS011;5411;58.386;15.560;2023-07-16T05:13:41;5.30;;;4.57;;
10719;SDS011;5411;58.386;15.560;2023-07-16T05:16:10;6.03;;;4.80;;
10719;SDS011;5411;58.386;15.560;2023-07-16T05:18:39;7.47;;;5.40;;
10719;SDS011;5411;58.386;15.560;2023-07-16T05:21:08;6.67;;;5.23;;
10719;SDS011;5411;58.386;15.560;2023-07-16T05:23:36;6.33;;;5.40;;
10719;SDS011;5411;58.386;15.560;2023-07-16T05:26:06;6.03;;;4.87;;
10719;SDS011;5411;58.386;15.560;2023-07-16T05:28:35;6.57;;;5.17;;
10719;SDS011;5411;58.386;15.560;2023-07-16T05:31:03;5.77;;;4.83;;
10719;SDS011;5411;58.386;15.560;2023-07-16T05:33:32;7.33;;;4.90;;
10719;SDS011;5411;58.386;15.560;2023-07-16T05:36:04;6.63;;;5.13;;
10719;SDS011;5411;58.386;15.560;2023-07-16T05:38:33;6.87;;;5.03;;
10719;SDS011;5411;58.386;15.560;2023-07-16T05:41:02;5.97;;;5.20;;
10719;SDS011;5411;58.386;15.560;2023-07-16T05:43:32;7.87;;;5.13;;
10719;SDS011;5411;58.386;15.560;2023-07-16T05:46:01;5.97;;;4.80;;
10719;SDS011;5411;58.386;15.560;2023-07-16T05:48:31;7.83;;;5.00;;
10719;SDS011;5411;58.386;15.560;2023-07-16T05:51:00;6.03;;;4.80;;
10719;SDS011;5411;58.386;15.560;2023-07-16T05:53:28;7.23;;;5.47;;
10719;SDS011;5411;58.386;15.560;2023-07-16T05:56:05;8.83;;;5.60;;
10719;SDS011;5411;58.386;15.560;2023-07-16T05:58:39;8.03;;;4.97;;
10719;SDS011;5411;58.386;15.560;2023-07-16T06:01:09;6.30;;;4.80;;
10719;SDS011;5411;58.386;15.560;2023-07-16T06:03:37;6.57;;;5.00;;
10719;SDS011;5411;58.386;15.560;2023-07-16T06:06:08;5.60;;;5.10;;
10719;SDS011;5411;58.386;15.560;2023-07-16T06:08:36;6.47;;;4.70;;
10719;SDS011;5411;58.386;15.560;2023-07-16T06:11:06;5.83;;;4.60;;
10719;SDS011;5411;58.386;15.560;2023-07-16T06:13:37;6.20;;;4.80;;
10719;SDS011;5411;58.386;15.560;2023-07-16T06:16:07;5.33;;;4.83;;
10719;SDS011;5411;58.386;15.560;2023-07-16T06:18:35;7.37;;;5.20;;
10719;SDS011;5411;58.386;15.560;2023-07-16T06:21:04;5.73;;;4.83;;
10719;SDS011;5411;58.386;15.560;2023-07-16T06:23:32;6.90;;;4.57;;
10719;SDS011;5411;58.386;15.560;2023-07-16T06:26:01;6.00;;;4.50;;
10719;SDS011;5411;58.386;15.560;2023-07-16T06:28:29;6.00;;;5.10;;
10719;SDS011;5411;58.386;15.560;2023-07-16T06:30:59;5.43;;;4.87;;
10719;SDS011;5411;58.386;15.560;2023-07-16T06:33:28;5.00;;;4.50;;
10719;SDS011;5411;58.386;15.560;2023-07-16T06:35:58;6.50;;;4.70;;
10719;SDS011;5411;58.386;15.560;2023-07-16T06:38:26;6.57;;;4.63;;
10719;SDS011;5411;58.386;15.560;2023-07-16T06:40:56;5.37;;;4.20;;
10719;SDS011;5411;58.386;15.560;2023-07-16T06:43:25;6.20;;;4.70;;
10719;SDS011;5411;58.386;15.560;2023-07-16T06:45:54;4.70;;;4.20;;
10719;SDS011;5411;58.386;15.560;2023-07-16T06:48:24;5.73;;;4.50;;
10719;SDS011;5411;58.386;15.560;2023-07-16T06:50:52;5.97;;;5.07;;
10719;SDS011;5411;58.386;15.560;2023-07-16T06:53:20;5.57;;;4.63;;
10719;SDS011;5411;58.386;15.560;2023-07-16T06:55:49;6.43;;;5.00;;
10719;SDS011;5411;58.386;15.560;2023-07-16T06:58:18;5.70;;;5.20;;
10719;SDS011;5411;58.386;15.560;2023-07-16T07:00:46;5.80;;;5.30;;
10719;SDS011;5411;58.386;15.560;2023-07-16T07:03:17;5.20;;;4.70;;
10719;SDS011;5411;58.386;15.560;2023-07-16T07:05:46;7.17;;;4.57;;
10719;SDS011;5411;58.386;15.560;2023-07-16T07:08:15;6.53;;;5.00;;
10719;SDS011;5411;58.386;15.560;2023-07-16T07:10:43;8.60;;;4.60;;
10719;SDS011;5411;58.386;15.560;2023-07-16T07:13:11;5.63;;;4.70;;
10719;SDS011;5411;58.386;15.560;2023-07-16T07:15:42;6.33;;;5.10;;
10719;SDS011;5411;58.386;15.560;2023-07-16T07:18:10;5.37;;;4.50;;
10719;SDS011;5411;58.386;15.560;2023-07-16T07:20:39;5.33;;;4.43;;
10719;SDS011;5411;58.386;15.560;2023-07-16T07:23:09;6.17;;;4.77;;
10719;SDS011;5411;58.386;15.560;2023-07-16T07:25:37;5.40;;;4.87;;
10719;SDS011;5411;58.386;15.560;2023-07-16T07:28:06;5.10;;;4.40;;
10719;SDS011;5411;58.386;15.560;2023-07-16T07:30:34;5.10;;;4.60;;
10719;SDS011;5411;58.386;15.560;2023-07-16T07:33:06;4.50;;;4.10;;
10719;SDS011;5411;58.386;15.560;2023-07-16T07:35:35;4.87;;;4.20;;
10719;SDS011;5411;58.386;15.560;2023-07-16T07:38:03;4.40;;;4.00;;
10719;SDS011;5411;58.386;15.560;2023-07-16T07:40:33;4.40;;;4.00;;
10719;SDS011;5411;58.386;15.560;2023-07-16T07:43:01;4.40;;;3.30;;
10719;SDS011;5411;58.386;15.560;2023-07-16T07:45:30;4.67;;;3.20;;
10719;SDS011;5411;58.386;15.560;2023-07-16T07:47:58;4.63;;;3.50;;
10719;SDS011;5411;58.386;15.560;2023-07-16T07:50:27;3.93;;;3.40;;
10719;SDS011;5411;58.386;15.560;2023-07-16T07:52:55;3.83;;;3.00;;
10719;SDS011;5411;58.386;15.560;2023-07-16T07:55:24;4.30;;;3.03;;
10719;SDS011;5411;58.386;15.560;2023-07-16T07:57:53;3.17;;;2.87;;
10719;SDS011;5411;58.386;15.560;2023-07-16T08:00:22;3.33;;;3.03;;
10719;SDS011;5411;58.386;15.560;2023-07-16T08:02:52;3.07;;;2.77;;
10719;SDS011;5411;58.386;15.560;2023-07-16T08:05:21;3.50;;;2.80;;
10719;SDS011;5411;58.386;15.560;2023-07-16T08:07:50;2.90;;;2.70;;
10719;SDS011;5411;58.386;15.560;2023-07-16T08:10:21;3.73;;;3.13;;
10719;SDS011;5411;58.386;15.560;2023-07-16T08:12:50;3.40;;;2.80;;
10719;SDS011;5411;58.386;15.560;2023-07-16T08:15:21;2.90;;;2.70;;
10719;SDS011;5411;58.386;15.560;2023-07-16T08:17:51;3.73;;;3.00;;
10719;SDS011;5411;58.386;15.560;2023-07-16T08:20:20;4.37;;;3.00;;
10719;SDS011;5411;58.386;15.560;2023-07-16T08:22:48;3.17;;;2.87;;
10719;SDS011;5411;58.386;15.560;2023-07-16T08:25:17;4.53;;;3.17;;
10719;SDS011;5411;58.386;15.560;2023-07-16T08:27:50;2.90;;;2.70;;
10719;SDS011;5411;58.386;15.560;2023-07-16T08:30:23;4.07;;;3.20;;
10719;SDS011;5411;58.386;15.560;2023-07-16T08:32:53;3.20;;;2.70;;
10719;SDS011;5411;58.386;15.560;2023-07-16T08:35:22;5.57;;;3.23;;
10719;SDS011;5411;58.386;15.560;2023-07-16T08:37:51;4.30;;;3.07;;
10719;SDS011;5411;58.386;15.560;2023-07-16T08:40:19;4.17;;;3.60;;
10719;SDS011;5411;58.386;15.560;2023-07-16T08:42:48;3.73;;;3.40;;
10719;SDS011;5411;58.386;15.560;2023-07-16T08:45:17;3.80;;;3.50;;
10719;SDS011;5411;58.386;15.560;2023-07-16T08:47:51;3.63;;;2.70;;
10719;SDS011;5411;58.386;15.560;2023-07-16T08:50:23;4.17;;;3.30;;
10719;SDS011;5411;58.386;15.560;2023-07-16T08:52:56;3.73;;;3.30;;
10719;SDS011;5411;58.386;15.560;2023-07-16T08:55:27;3.90;;;3.50;;
10719;SDS011;5411;58.386;15.560;2023-07-16T08:57:59;3.20;;;2.90;;
10719;SDS011;5411;58.386;15.560;2023-07-16T09:00:29;3.10;;;2.80;;
10719;SDS011;5411;58.386;15.560;2023-07-16T09:02:59;3.93;;;2.57;;
10719;SDS011;5411;58.386;15.560;2023-07-16T09:05:29;3.13;;;2.87;;
10719;SDS011;5411;58.386;15.560;2023-07-16T09:08:06;2.77;;;2.50;;
10719;SDS011;5411;58.386;15.560;2023-07-16T09:10:34;2.83;;;2.40;;
10719;SDS011;5411;58.386;15.560;2023-07-16T09:13:03;3.10;;;2.40;;
10719;SDS011;5411;58.386;15.560;2023-07-16T09:15:32;4.33;;;2.77;;
10719;SDS011;5411;58.386;15.560;2023-07-16T09:18:05;3.90;;;2.50;;
10719;SDS011;5411;58.386;15.560;2023-07-16T09:20:39;2.87;;;2.30;;
10719;SDS011;5411;58.386;15.560;2023-07-16T09:23:11;2.40;;;2.20;;
10719;SDS011;5411;58.386;15.560;2023-07-16T09:25:44;3.27;;;2.30;;
10719;SDS011;5411;58.386;15.560;2023-07-16T09:28:13;4.30;;;2.50;;
10719;SDS011;5411;58.386;15.560;2023-07-16T09:30:41;3.40;;;2.33;;
10719;SDS011;5411;58.386;15.560;2023-07-16T09:33:12;2.83;;;2.40;;
10719;SDS011;5411;58.386;15.560;2023-07-16T09:35:42;2.40;;;2.20;;
10719;SDS011;5411;58.386;15.560;2023-07-16T09:38:10;2.33;;;2.17;;
10719;SDS011;5411;58.386;15.560;2023-07-16T09:40:39;2.53;;;2.23;;
10719;SDS011;5411;58.386;15.560;2023-07-16T09:43:09;3.33;;;2.20;;
10719;SDS011;5411;58.386;15.560;2023-07-16T09:45:38;2.53;;;2.27;;
10719;SDS011;5411;58.386;15.560;2023-07-16T09:48:07;4.27;;;2.50;;
10719;SDS011;5411;58.386;15.560;2023-07-16T09:50:38;2.47;;;2.07;;
10719;SDS011;5411;58.386;15.560;2023-07-16T09:53:12;2.67;;;2.40;;
10719;SDS011;5411;58.386;15.560;2023-07-16T09:55:43;2.50;;;2.30;;
10719;SDS011;5411;58.386;15.560;2023-07-16T09:58:17;1.93;;;1.80;;
10719;SDS011;5411;58.386;15.560;2023-07-16T10:00:49;3.33;;;2.23;;
10719;SDS011;5411;58.386;15.560;2023-07-16T10:03:19;2.30;;;2.10;;
10719;SDS011;5411;58.386;15.560;2023-07-16T10:05:49;2.40;;;2.20;;
10719;SDS011;5411;58.386;15.560;2023-07-16T10:08:18;2.97;;;2.10;;
10719;SDS011;5411;58.386;15.560;2023-07-16T10:10:48;3.17;;;2.37;;
10719;SDS011;5411;58.386;15.560;2023-07-16T10:13:23;2.20;;;1.80;;
10719;SDS011;5411;58.386;15.560;2023-07-16T10:15:54;3.77;;;2.20;;
10719;SDS011;5411;58.386;15.560;2023-07-16T10:18:24;4.67;;;1.93;;
10719;SDS011;5411;58.386;15.560;2023-07-16T10:21:03;2.83;;;2.00;;
10719;SDS011;5411;58.386;15.560;2023-07-16T10:23:37;2.33;;;2.13;;
10719;SDS011;5411;58.386;15.560;2023-07-16T10:26:09;2.33;;;2.13;;
10719;SDS011;5411;58.386;15.560;2023-07-16T10:28:44;2.20;;;2.00;;
10719;SDS011;5411;58.386;15.560;2023-07-16T10:31:19;2.77;;;2.13;;
10719;SDS011;5411;58.386;15.560;2023-07-16T10:33:59;2.70;;;2.23;;
10719;SDS011;5411;58.386;15.560;2023-07-16T10:36:29;2.10;;;1.87;;
10719;SDS011;5411;58.386;15.560;2023-07-16T10:39:02;3.37;;;2.20;;
10719;SDS011;5411;58.386;15.560;2023-07-16T10:41:31;2.73;;;2.27;;
10719;SDS011;5411;58.386;15.560;2023-07-16T10:44:01;2.97;;;2.37;;
10719;SDS011;5411;58.386;15.560;2023-07-16T10:46:30;2.10;;;1.90;;
10719;SDS011;5411;58.386;15.560;2023-07-16T10:49:00;3.77;;;1.83;;
10719;SDS011;5411;58.386;15.560;2023-07-16T10:51:32;3.20;;;2.47;;
10719;SDS011;5411;58.386;15.560;2023-07-16T10:54:00;3.43;;;2.23;;
10719;SDS011;5411;58.386;15.560;2023-07-16T10:56:33;4.47;;;2.33;;
10719;SDS011;5411;58.386;15.560;2023-07-16T10:59:03;2.83;;;2.20;;
10719;SDS011;5411;58.386;15.560;2023-07-16T11:01:34;3.73;;;2.27;;
10719;SDS011;5411;58.386;15.560;2023-07-16T11:04:06;2.57;;;2.33;;
10719;SDS011;5411;58.386;15.560;2023-07-16T11:06:36;2.70;;;2.10;;
10719;SDS011;5411;58.386;15.560;2023-07-16T11:09:07;4.70;;;2.17;;
10719;SDS011;5411;58.386;15.560;2023-07-16T11:11:36;2.77;;;2.00;;
10719;SDS011;5411;58.386;15.560;2023-07-16T11:14:07;2.13;;;1.87;;
10719;SDS011;5411;58.386;15.560;2023-07-16T11:16:37;2.73;;;2.20;;
10719;SDS011;5411;58.386;15.560;2023-07-16T11:19:07;2.70;;;2.20;;
10719;SDS011;5411;58.386;15.560;2023-07-16T11:21:37;2.40;;;2.07;;
10719;SDS011;5411;58.386;15.560;2023-07-16T11:24:09;2.13;;;1.87;;
10719;SDS011;5411;58.386;15.560;2023-07-16T11:26:38;4.07;;;2.23;;
10719;SDS011;5411;58.386;15.560;2023-07-16T11:29:14;2.37;;;2.13;;
10719;SDS011;5411;58.386;15.560;2023-07-16T11:31:42;3.47;;;2.30;;
10719;SDS011;5411;58.386;15.560;2023-07-16T11:34:12;4.10;;;2.07;;
10719;SDS011;5411;58.386;15.560;2023-07-16T11:36:42;3.93;;;2.43;;
10719;SDS011;5411;58.386;15.560;2023-07-16T11:39:11;3.07;;;2.10;;
10719;SDS011;5411;58.386;15.560;2023-07-16T11:41:40;3.83;;;2.50;;
10719;SDS011;5411;58.386;15.560;2023-07-16T11:44:08;3.73;;;2.37;;
10719;SDS011;5411;58.386;15.560;2023-07-16T11:46:39;4.33;;;2.30;;
10719;SDS011;5411;58.386;15.560;2023-07-16T11:49:08;3.27;;;2.13;;
10719;SDS011;5411;58.386;15.560;2023-07-16T11:51:36;4.80;;;2.37;;
10719;SDS011;5411;58.386;15.560;2023-07-16T11:54:06;3.53;;;2.20;;
10719;SDS011;5411;58.386;15.560;2023-07-16T11:56:35;3.50;;;2.43;;
10719;SDS011;5411;58.386;15.560;2023-07-16T11:59:03;2.23;;;1.90;;
10719;SDS011;5411;58.386;15.560;2023-07-16T12:01:38;3.17;;;1.97;;
10719;SDS011;5411;58.386;15.560;2023-07-16T12:04:07;3.47;;;2.50;;
10719;SDS011;5411;58.386;15.560;2023-07-16T12:06:35;3.07;;;2.07;;
10719;SDS011;5411;58.386;15.560;2023-07-16T12:09:03;3.37;;;2.23;;
10719;SDS011;5411;58.386;15.560;2023-07-16T12:11:36;3.23;;;2.10;;
10719;SDS011;5411;58.386;15.560;2023-07-16T12:14:05;2.63;;;2.20;;
10719;SDS011;5411;58.386;15.560;2023-07-16T12:16:36;3.23;;;2.10;;
10719;SDS011;5411;58.386;15.560;2023-07-16T12:19:05;3.97;;;2.50;;
10719;SDS011;5411;58.386;15.560;2023-07-16T12:21:36;4.43;;;2.17;;
10719;SDS011;5411;58.386;15.560;2023-07-16T12:24:05;3.33;;;2.07;;
10719;SDS011;5411;58.386;15.560;2023-07-16T12:26:38;2.47;;;2.27;;
10719;SDS011;5411;58.386;15.560;2023-07-16T12:29:06;2.27;;;2.07;;
10719;SDS011;5411;58.386;15.560;2023-07-16T12:31:35;2.73;;;1.93;;
10719;SDS011;5411;58.386;15.560;2023-07-16T12:34:06;5.00;;;2.40;;
10719;SDS011;5411;58.386;15.560;2023-07-16T12:36:35;2.93;;;2.20;;
10719;SDS011;5411;58.386;15.560;2023-07-16T12:39:03;4.47;;;2.30;;
10719;SDS011;5411;58.386;15.560;2023-07-16T12:41:33;3.93;;;2.23;;
10719;SDS011;5411;58.386;15.560;2023-07-16T12:44:03;3.47;;;2.10;;
10719;SDS011;5411;58.386;15.560;2023-07-16T12:46:33;3.87;;;2.30;;
10719;SDS011;5411;58.386;15.560;2023-07-16T12:49:01;3.53;;;2.03;;
10719;SDS011;5411;58.386;15.560;2023-07-16T12:51:30;3.33;;;2.07;;
10719;SDS011;5411;58.386;15.560;2023-07-16T12:53:59;6.87;;;2.63;;
10719;SDS011;5411;58.386;15.560;2023-07-16T12:56:27;3.77;;;2.50;;
10719;SDS011;5411;58.386;15.560;2023-07-16T12:58:58;3.73;;;2.30;;
10719;SDS011;5411;58.386;15.560;2023-07-16T13:01:28;3.87;;;2.50;;
10719;SDS011;5411;58.386;15.560;2023-07-16T13:03:57;5.73;;;2.77;;
10719;SDS011;5411;58.386;15.560;2023-07-16T13:06:26;5.53;;;2.30;;
10719;SDS011;5411;58.386;15.560;2023-07-16T13:08:58;3.63;;;2.50;;
10719;SDS011;5411;58.386;15.560;2023-07-16T13:11:28;4.23;;;2.77;;
10719;SDS011;5411;58.386;15.560;2023-07-16T13:14:01;3.23;;;2.30;;
10719;SDS011;5411;58.386;15.560;2023-07-16T13:16:32;3.87;;;2.73;;
10719;SDS011;5411;58.386;15.560;2023-07-16T13:19:00;2.90;;;2.10;;
10719;SDS011;5411;58.386;15.560;2023-07-16T13:21:29;3.70;;;2.50;;
10719;SDS011;5411;58.386;15.560;2023-07-16T13:24:08;3.23;;;2.60;;
10719;SDS011;5411;58.386;15.560;2023-07-16T13:26:36;4.83;;;2.90;;
10719;SDS011;5411;58.386;15.560;2023-07-16T13:29:05;4.40;;;2.00;;
10719;SDS011;5411;58.386;15.560;2023-07-16T13:31:39;5.40;;;2.73;;
10719;SDS011;5411;58.386;15.560;2023-07-16T13:34:08;4.40;;;2.37;;
10719;SDS011;5411;58.386;15.560;2023-07-16T13:36:37;4.50;;;3.13;;
10719;SDS011;5411;58.386;15.560;2023-07-16T13:39:05;4.80;;;2.40;;
10719;SDS011;5411;58.386;15.560;2023-07-16T13:41:37;5.23;;;2.40;;
10719;SDS011;5411;58.386;15.560;2023-07-16T13:44:07;4.80;;;2.67;;
10719;SDS011;5411;58.386;15.560;2023-07-16T13:46:35;4.07;;;2.70;;
10719;SDS011;5411;58.386;15.560;2023-07-16T13:49:06;4.30;;;2.57;;
10719;SDS011;5411;58.386;15.560;2023-07-16T13:51:34;5.27;;;2.80;;
10719;SDS011;5411;58.386;15.560;2023-07-16T13:54:03;4.67;;;2.53;;
10719;SDS011;5411;58.386;15.560;2023-07-16T13:56:33;4.60;;;2.63;;
10719;SDS011;5411;58.386;15.560;2023-07-16T13:59:02;5.00;;;3.13;;
10719;SDS011;5411;58.386;15.560;2023-07-16T14:01:30;6.53;;;3.30;;
10719;SDS011;5411;58.386;15.560;2023-07-16T14:03:59;6.67;;;2.60;;
10719;SDS011;5411;58.386;15.560;2023-07-16T14:09:07;5.10;;;2.90;;
10719;SDS011;5411;58.386;15.560;2023-07-16T14:11:38;6.03;;;2.97;;
10719;SDS011;5411;58.386;15.560;2023-07-16T14:14:21;5.13;;;3.10;;
10719;SDS011;5411;58.386;15.560;2023-07-16T14:16:52;5.23;;;2.80;;
10719;SDS011;5411;58.386;15.560;2023-07-16T14:19:22;4.70;;;2.50;;
10719;SDS011;5411;58.386;15.560;2023-07-16T14:21:52;3.73;;;2.77;;
10719;SDS011;5411;58.386;15.560;2023-07-16T14:24:21;4.03;;;2.57;;
10719;SDS011;5411;58.386;15.560;2023-07-16T14:26:49;5.73;;;3.00;;
10719;SDS011;5411;58.386;15.560;2023-07-16T14:29:18;4.80;;;2.80;;
10719;SDS011;5411;58.386;15.560;2023-07-16T14:31:46;6.07;;;2.87;;
10719;SDS011;5411;58.386;15.560;2023-07-16T14:34:15;4.57;;;2.77;;
10719;SDS011;5411;58.386;15.560;2023-07-16T14:36:43;4.57;;;3.27;;
10719;SDS011;5411;58.386;15.560;2023-07-16T14:39:13;3.77;;;2.47;;
10719;SDS011;5411;58.386;15.560;2023-07-16T14:41:42;4.37;;;3.00;;
10719;SDS011;5411;58.386;15.560;2023-07-16T14:44:10;5.03;;;2.67;;
10719;SDS011;5411;58.386;15.560;2023-07-16T14:46:38;3.60;;;2.40;;
10719;SDS011;5411;58.386;15.560;2023-07-16T14:49:08;5.10;;;2.77;;
10719;SDS011;5411;58.386;15.560;2023-07-16T14:51:39;4.93;;;2.40;;
10719;SDS011;5411;58.386;15.560;2023-07-16T14:54:09;3.73;;;3.00;;
10719;SDS011;5411;58.386;15.560;2023-07-16T14:56:38;3.90;;;2.77;;
10719;SDS011;5411;58.386;15.560;2023-07-16T14:59:07;4.37;;;2.90;;
10719;SDS011;5411;58.386;15.560;2023-07-16T15:01:36;4.77;;;2.70;;
10719;SDS011;5411;58.386;15.560;2023-07-16T15:04:05;3.77;;;2.43;;
10719;SDS011;5411;58.386;15.560;2023-07-16T15:06:38;5.53;;;2.60;;